LiveATC.Net - Listen to live air traffic control over the Internet!

Find LiveATC Audio Streams


Airport/ARTCC Code

Frequency
(e.g., 124.400, 128.75)
Site-wide search

Browse LiveATC Feeds
LiveATC Coverage Map
Top 50 LiveATC Feeds
Bad Weather Areas

LiveATC FAQ
Offer a LiveATC Feed
Contact LiveATC.net
Press Inquiries

LiveATC on iPhone
LiveATC on Android

Windows Phone
Windows 8/10

LiveATC Mobile
(Mobile browser)

ATC Audio Archives
Interesting Recordings

LiveATC Forums

Home Page
About LiveATC.net
Make a Donation
LiveATC Store

Terms of Use
Privacy Policy

Canadian Air Freqs

AIRMETs/SIGMETs

FAA Airport Status
Nat'l Airspace Status
Arrival Demand Charts


Server Software By:
Icecast.org
Liquidsoap


Current Potentially Bad Weather Airports
(updated every 30 minutes - sorted alphabetically by ICAO code)



This page lists LiveATC.net airport areas that may be interesting to listen to because of challenging flying (weather) conditions. Challenging weather conditions include low ceilings, limited visibility, high or gusty winds, or thunderstorms.

Updated: Mon Jun 27 14:40:02 UTC 2016
Click on airport name to go to that airport area's feeds.

CYOW Gnd/Twr/AppOttawa MacDonald Cartier International Airport
cyowNearest METAR:
CYOW 271400Z 19013KT 6SM BR OVC003 21/20 A2986 RMK SF8 SLP111 DENSITY ALT 1200FT
ENBO ApproachBodo Airport
WX MAP UNAVAILABLENearest METAR:
ENBO 271420Z 10017KT 9999 -SHRA FEW030 SCT050 BKN080 19/09 Q1003 TEMPO 12020G30KT
KBLM/N12/3N6/KMJXOld Bridge Airport
kblmNearest METAR:
KBLM 271415Z 20007KT 10SM FEW024 24/17 A3012 RMK AO2 SLP301 PWINO FZRANO RVRNO
KCMA Gnd/Twr/AppCamarillo Airport
kcmaNearest METAR:
KCMA 271409Z 00000KT 3SM BR OVC004 17/16 A2992 RMK AO2 T01720156
KFUL TowerFullerton Municipal Airport
kfulNearest METAR:
KFUL 271353Z 14005KT 3SM HZ OVC008 21/18 A2992 RMK AO2 SLP130 T02060178
KGAO AWOSSouth Lafourche Leonard Miller Jr. Airport
kgaoNearest METAR:
KGAO 271415Z AUTO 02003KT TS SCT024 BKN033 OVC090 26/22 A3009 RMK AO2 LTG DSNT ALQS T02550221
KHHR Ground/TowerJack Northrop Field/Hawthorne Municipal Airport
khhrNearest METAR:
KHHR 271353Z 00000KT 2 1/2SM BR OVC005 19/17 A2993 RMK AO2 SLP133 T01890172
KLAX Tower (North)Los Angeles International Airport
klaxNearest METAR:
KLAX 271353Z 22005KT 1/2SM R25R/P6000FT FG OVC005 18/17 A2992 RMK AO2 SLP131 VIS 1/8V1 ASOS VIS 2 T01830172 $
KLHZ CTAFFranklin County Airport
klhzNearest METAR:
KLHZ 271410Z AUTO 19004KT 10SM OVC007 22/21 A3016 RMK AO2
KNEW Del/Gnd/TwrLakefront Airport
knewNearest METAR:
KNEW 271353Z 13004KT 7SM FEW085 26/23 A3009 RMK AO2 LTG DSNT SE AND S RAE36 TSE05 SLP184 P0017 T02560228
KOJC Gnd/Twr/App/ZKCJohnson County Executive Airport
kojcNearest METAR:
KOJC 271411Z 07005KT 6SM BR OVC005 22/21 A3017 RMK AO2 CIG 004V009 T02220211
KPKB Gnd/Twr/UnicomMid-Ohio Valley Regional Airport
kpkbNearest METAR:
KPKB 271353Z 30003KT 10SM -RA FEW023 BKN070 OVC100 23/22 A3008 RMK AO2 LTG DSNT N RAB40 SLP179 P0007 T02330217
KSBA Del/Gnd/Twr/AppSanta Barbara Municipal Airport
ksbaNearest METAR:
KSBA 271353Z AUTO 16003KT 3SM BR OVC004 16/16 A2993 RMK AO2 SLP134 T01610161
KSMO TowerSanta Monica Municipal Airport
ksmoNearest METAR:
KSMO 271351Z 26004KT 1/2SM FG VV002 18/17 A2993 RMK AO2 SLP131 T01780172
LHDC Info/TowerDebrecen Airport
WX MAP UNAVAILABLENearest METAR:
LHDC 271345Z 30005KT 9999 SCT033CB SCT083 26/16 Q1013 TEMPO SHRA TSRA SCT020CB
LTAC Tower/ApproachEsenboga International Airport
WX MAP UNAVAILABLENearest METAR:
LTAC 271350Z 36018KT 9999 -TSRA FEW030CB BKN035 24/16 Q1008 BECMG TL1420 VRB02KT NSW
LZKZ Gnd/Twr/AppKosice International Airport
WX MAP UNAVAILABLENearest METAR:
LZKZ 271430Z 01014KT 9999 FEW026 BKN060 22/15 Q1014 TEMPO TSRA
SBPA Gnd/Twr/AppSalgado Filho International Airport
WX MAP UNAVAILABLENearest METAR:
SBPA 271400Z 09004KT 2200 BR OVC003 12/12 Q1027
SCJO Gnd/TwrCanal Bajo Carlos Hott Siebert Airport
WX MAP UNAVAILABLENearest METAR:
SCJO 271400Z VRB01KT 0150 FG VV000 04/04 Q1023
SGAS Gnd/Twr/AppSilvio Pettirossi International Airport
WX MAP UNAVAILABLENearest METAR:
SGAS 271400Z 19007KT 9999 OVC009 13/11 Q1026
UKLL Twr/App/RadarLviv International Airport
WX MAP UNAVAILABLENearest METAR:
UKLL 271430Z 36004MPS 330V030 9999 OVC020 21/16 Q1014 R31/CLRD80 TEMPO -TSRA BKN007 BKN020CB
VTBS App/DepSuvarnabhumi Airport
WX MAP UNAVAILABLENearest METAR:
VTBS 271400Z 20003KT 160V240 9999 -TSRA FEW020CB SCT035 26/23 Q1007 NOSIG